createdAt,value
2022-09-25T00:00:45.992Z,13.30
2022-09-25T00:03:14.074Z,13.30
2022-09-25T00:05:42.631Z,13.30
2022-09-25T00:08:10.335Z,13.20
2022-09-25T00:10:41.962Z,13.20
2022-09-25T00:13:09.719Z,13.20
2022-09-25T00:15:37.337Z,13.20
2022-09-25T00:18:04.122Z,13.20
2022-09-25T00:20:30.755Z,13.20
2022-09-25T00:22:59.775Z,13.20
2022-09-25T00:25:27.386Z,13.20
2022-09-25T00:27:54.702Z,13.20
2022-09-25T00:30:21.517Z,13.20
2022-09-25T00:32:48.106Z,13.20
2022-09-25T00:35:14.802Z,13.20
2022-09-25T00:37:41.558Z,13.20
2022-09-25T00:40:09.367Z,13.10
2022-09-25T00:42:36.448Z,13.10
2022-09-25T00:45:05.979Z,13.10
2022-09-25T00:47:42.499Z,13.10
2022-09-25T00:50:30.423Z,13.10
2022-09-25T00:53:03.888Z,13.10
2022-09-25T00:55:32.620Z,13.00
2022-09-25T00:58:01.348Z,13.00
2022-09-25T01:00:28.019Z,13.00
2022-09-25T01:02:56.318Z,13.00
2022-09-25T01:05:30.358Z,13.00
2022-09-25T01:07:59.652Z,13.00
2022-09-25T01:10:27.426Z,13.00
2022-09-25T01:12:56.934Z,13.00
2022-09-25T01:15:41.887Z,13.00
2022-09-25T01:18:31.019Z,13.00
2022-09-25T01:21:21.183Z,13.00
2022-09-25T01:24:02.685Z,12.90
2022-09-25T01:26:54.291Z,12.90
2022-09-25T01:29:42.756Z,13.00
2022-09-25T01:32:33.949Z,13.00
2022-09-25T01:35:03.480Z,13.00
2022-09-25T01:37:42.006Z,12.90
2022-09-25T01:40:23.368Z,12.90
2022-09-25T01:43:05.853Z,12.90
2022-09-25T01:45:53.280Z,12.80
2022-09-25T01:48:25.300Z,12.80
2022-09-25T01:50:59.277Z,12.70
2022-09-25T01:53:32.848Z,12.80
2022-09-25T01:56:08.006Z,12.70
2022-09-25T01:58:40.973Z,12.70
2022-09-25T02:01:22.366Z,12.70
2022-09-25T02:04:00.451Z,12.70
2022-09-25T02:06:27.797Z,12.60
2022-09-25T02:09:04.670Z,12.60
2022-09-25T02:11:36.117Z,12.60
2022-09-25T02:14:08.896Z,12.60
2022-09-25T02:16:38.980Z,12.50
2022-09-25T02:19:24.624Z,12.50
2022-09-25T02:22:10.816Z,12.50
2022-09-25T02:25:00.399Z,12.40
2022-09-25T02:27:28.312Z,12.50
2022-09-25T02:29:56.388Z,12.50
2022-09-25T02:32:28.569Z,12.40
2022-09-25T02:34:56.567Z,12.40
2022-09-25T02:37:23.935Z,12.40
2022-09-25T02:39:55.748Z,12.40
2022-09-25T02:42:44.892Z,12.40
2022-09-25T02:45:37.995Z,12.30
2022-09-25T02:48:32.063Z,12.30
2022-09-25T02:51:02.450Z,12.30
2022-09-25T02:54:01.432Z,12.30
2022-09-25T02:56:37.537Z,12.30
2022-09-25T02:59:11.882Z,12.30
2022-09-25T03:01:42.300Z,12.30
2022-09-25T03:04:09.694Z,12.30
2022-09-25T03:06:38.457Z,12.30
2022-09-25T03:09:08.579Z,12.20
2022-09-25T03:11:43.563Z,12.20
2022-09-25T03:14:10.544Z,12.10
2022-09-25T03:16:46.911Z,12.20
2022-09-25T03:19:14.711Z,12.10
2022-09-25T03:21:41.485Z,12.10
2022-09-25T03:24:09.142Z,12.10
2022-09-25T03:26:35.868Z,12.10
2022-09-25T03:29:03.204Z,12.10
2022-09-25T03:31:30.510Z,12.10
2022-09-25T03:33:57.875Z,12.00
2022-09-25T03:36:27.068Z,12.00
2022-09-25T03:38:58.798Z,12.10
2022-09-25T03:41:28.354Z,12.10
2022-09-25T03:43:56.533Z,12.10
2022-09-25T03:46:26.191Z,12.00
2022-09-25T03:48:53.918Z,12.00
2022-09-25T03:51:21.615Z,12.00
2022-09-25T03:53:49.542Z,12.00
2022-09-25T03:56:20.231Z,12.00
2022-09-25T03:58:47.665Z,12.00
2022-09-25T04:01:15.686Z,12.00
2022-09-25T04:03:47.104Z,12.00
2022-09-25T04:06:19.061Z,11.90
2022-09-25T04:08:47.960Z,11.80
2022-09-25T04:11:16.254Z,11.80
2022-09-25T04:13:44.015Z,11.90
2022-09-25T04:16:12.030Z,11.80
2022-09-25T04:18:40.469Z,11.80
2022-09-25T04:21:08.544Z,11.80
2022-09-25T04:23:36.418Z,11.80
2022-09-25T04:26:03.086Z,11.80
2022-09-25T04:28:32.113Z,11.70
2022-09-25T04:30:59.652Z,11.70
2022-09-25T04:33:45.227Z,11.70
2022-09-25T04:36:12.120Z,11.70
2022-09-25T04:38:39.180Z,11.70
2022-09-25T04:41:07.621Z,11.60
2022-09-25T04:43:34.342Z,11.50
2022-09-25T04:46:08.447Z,11.50
2022-09-25T04:48:36.163Z,11.30
2022-09-25T04:51:04.162Z,11.30
2022-09-25T04:53:33.037Z,11.20
2022-09-25T04:56:13.898Z,11.10
2022-09-25T04:58:48.726Z,11.10
2022-09-25T05:01:17.387Z,11.00
2022-09-25T05:03:44.170Z,10.90
2022-09-25T05:06:10.885Z,10.90
2022-09-25T05:08:37.494Z,10.80
2022-09-25T05:11:04.229Z,10.80
2022-09-25T05:13:31.347Z,10.70
2022-09-25T05:15:58.146Z,10.70
2022-09-25T05:18:25.292Z,10.60
2022-09-25T05:20:55.257Z,10.60
2022-09-25T05:23:24.173Z,10.60
2022-09-25T05:25:55.558Z,10.50
2022-09-25T05:28:23.336Z,10.40
2022-09-25T05:30:50.265Z,10.40
2022-09-25T05:33:18.013Z,10.40
2022-09-25T05:35:44.831Z,10.30
2022-09-25T05:38:12.265Z,10.30
2022-09-25T05:40:41.662Z,10.20
2022-09-25T05:43:08.360Z,10.10
2022-09-25T05:45:36.018Z,10.10
2022-09-25T05:48:08.211Z,10.10
2022-09-25T05:50:35.427Z,10.10
2022-09-25T05:53:04.445Z,10.10
2022-09-25T05:55:31.720Z,10.00
2022-09-25T05:58:04.739Z,10.10
2022-09-25T06:00:35.155Z,10.00
2022-09-25T06:03:02.309Z,10.00
2022-09-25T06:05:29.897Z,10.10
2022-09-25T06:07:57.042Z,10.00
2022-09-25T06:10:25.958Z,10.00
2022-09-25T06:12:59.007Z,10.10
2022-09-25T06:15:27.843Z,10.10
2022-09-25T06:17:56.505Z,10.10
2022-09-25T06:20:23.518Z,10.10
2022-09-25T06:22:58.375Z,10.20
2022-09-25T06:25:28.323Z,10.20
2022-09-25T06:27:56.109Z,10.20
2022-09-25T06:30:27.803Z,10.20
2022-09-25T06:32:58.221Z,10.20
2022-09-25T06:35:24.963Z,10.20
2022-09-25T06:37:52.190Z,10.30
2022-09-25T06:40:18.901Z,10.40
2022-09-25T06:42:46.142Z,10.40
2022-09-25T06:45:12.876Z,10.40
2022-09-25T06:47:39.612Z,10.50
2022-09-25T06:50:06.760Z,10.50
2022-09-25T06:52:33.395Z,10.60
2022-09-25T06:55:00.445Z,10.70
2022-09-25T06:57:27.159Z,10.80
2022-09-25T06:59:53.863Z,10.90
2022-09-25T07:02:39.567Z,11.00
2022-09-25T07:05:06.514Z,11.10
2022-09-25T07:07:33.164Z,11.30
2022-09-25T07:10:01.348Z,11.30
2022-09-25T07:12:28.018Z,11.40
2022-09-25T07:14:54.778Z,11.50
2022-09-25T07:17:21.438Z,11.50
2022-09-25T07:19:48.414Z,11.60
2022-09-25T07:22:15.424Z,11.60
2022-09-25T07:24:42.055Z,11.70
2022-09-25T07:27:08.713Z,11.80
2022-09-25T07:29:35.554Z,11.70
2022-09-25T07:32:02.572Z,11.80
2022-09-25T07:34:29.202Z,11.90
2022-09-25T07:36:56.300Z,11.90
2022-09-25T07:39:22.914Z,12.00
2022-09-25T07:41:49.986Z,12.00
2022-09-25T07:44:37.951Z,12.00
2022-09-25T07:47:03.847Z,12.10
2022-09-25T07:49:31.310Z,12.30
2022-09-25T07:51:58.474Z,12.30
2022-09-25T07:54:25.718Z,12.30
2022-09-25T07:56:52.484Z,12.40
2022-09-25T07:59:19.145Z,12.50
2022-09-25T08:01:52.710Z,12.60
2022-09-25T08:04:20.603Z,12.60
2022-09-25T08:06:47.799Z,12.80
2022-09-25T08:09:14.587Z,12.80
2022-09-25T08:11:41.324Z,12.90
2022-09-25T08:14:08.046Z,13.00
2022-09-25T08:16:35.418Z,13.00
2022-09-25T08:19:02.104Z,13.10
2022-09-25T08:21:28.779Z,13.20
2022-09-25T08:23:56.671Z,13.30
2022-09-25T08:26:23.491Z,13.50
2022-09-25T08:28:52.678Z,13.50
2022-09-25T08:31:19.784Z,13.60
2022-09-25T08:33:47.657Z,13.80
2022-09-25T08:36:15.771Z,13.90
2022-09-25T08:38:42.994Z,14.10
2022-09-25T08:41:18.764Z,14.10
2022-09-25T08:44:11.090Z,14.20
2022-09-25T08:47:08.184Z,14.30
2022-09-25T08:49:38.670Z,14.60
2022-09-25T08:52:09.017Z,14.70
2022-09-25T08:54:36.286Z,14.90
2022-09-25T08:57:14.506Z,14.90
2022-09-25T08:59:48.673Z,15.10
2022-09-25T09:02:25.146Z,15.30
2022-09-25T09:04:55.595Z,15.30
2022-09-25T09:07:33.885Z,15.50
2022-09-25T09:10:24.671Z,15.50
2022-09-25T09:13:12.819Z,15.80
2022-09-25T09:15:42.961Z,16.00
2022-09-25T09:18:24.069Z,16.10
2022-09-25T09:20:54.188Z,16.20
2022-09-25T09:23:31.559Z,16.40
2022-09-25T09:26:11.249Z,16.60
2022-09-25T09:28:52.738Z,16.80
2022-09-25T09:31:56.897Z,17.00
2022-09-25T09:35:06.852Z,17.10
2022-09-25T09:37:42.691Z,17.20
2022-09-25T09:40:22.359Z,17.50
2022-09-25T09:43:04.927Z,17.60
2022-09-25T09:45:39.407Z,17.70
2022-09-25T09:48:15.531Z,17.80
2022-09-25T09:50:52.319Z,17.90
2022-09-25T09:53:43.443Z,17.80
2022-09-25T09:56:12.087Z,18.10
2022-09-25T09:58:46.706Z,18.30
2022-09-25T10:04:14.481Z,18.80
2022-09-25T10:06:47.590Z,19.20
2022-09-25T10:09:17.667Z,19.40
2022-09-25T10:11:46.956Z,19.30
2022-09-25T10:14:21.461Z,19.00
2022-09-25T10:16:52.085Z,18.60
2022-09-25T10:19:24.766Z,18.20
2022-09-25T10:22:00.084Z,18.10
2022-09-25T10:24:58.498Z,17.80
2022-09-25T10:27:32.969Z,17.40
2022-09-25T10:30:12.004Z,17.60
2022-09-25T10:33:01.292Z,17.90
2022-09-25T10:35:51.168Z,18.30
2022-09-25T10:38:39.138Z,18.50
2022-09-25T10:41:18.269Z,18.60
2022-09-25T10:43:56.894Z,18.80
2022-09-25T10:46:50.831Z,18.90
2022-09-25T10:49:41.786Z,18.80
2022-09-25T10:52:14.035Z,18.90
2022-09-25T10:54:45.223Z,18.80
2022-09-25T10:57:34.564Z,18.70
2022-09-25T11:00:04.693Z,18.70
2022-09-25T11:02:42.136Z,18.80
2022-09-25T11:05:19.808Z,19.00
2022-09-25T11:07:54.943Z,19.20
2022-09-25T11:10:27.805Z,19.50
2022-09-25T11:12:56.592Z,19.60
2022-09-25T11:15:26.577Z,19.60
2022-09-25T11:17:56.532Z,19.50
2022-09-25T11:20:31.933Z,19.40
2022-09-25T11:23:22.110Z,19.20
2022-09-25T11:26:00.965Z,19.10
2022-09-25T11:28:40.571Z,19.20
2022-09-25T11:31:27.442Z,19.40
2022-09-25T11:34:19.047Z,19.50
2022-09-25T11:37:14.353Z,19.40
2022-09-25T11:40:29.837Z,19.20
2022-09-25T11:43:08.275Z,18.90
2022-09-25T11:45:51.650Z,18.70
2022-09-25T11:49:07.326Z,18.60
2022-09-25T11:51:58.514Z,18.90
2022-09-25T11:54:42.285Z,19.10
2022-09-25T11:57:39.486Z,19.40
2022-09-25T12:00:25.299Z,19.70
2022-09-25T12:03:30.261Z,19.90
2022-09-25T12:06:03.318Z,20.00
2022-09-25T12:08:50.349Z,19.90
2022-09-25T12:11:45.446Z,19.90
2022-09-25T12:14:38.373Z,19.90
2022-09-25T12:17:21.629Z,20.00
2022-09-25T12:20:11.399Z,20.10
2022-09-25T12:23:13.338Z,20.00
2022-09-25T12:25:59.808Z,19.90
2022-09-25T12:28:29.476Z,19.70
2022-09-25T12:31:06.022Z,19.50
2022-09-25T12:33:52.358Z,19.10
2022-09-25T12:36:37.467Z,18.80
2022-09-25T12:39:27.548Z,18.90
2022-09-25T12:42:21.121Z,19.00
2022-09-25T12:45:09.594Z,18.90
2022-09-25T12:47:58.110Z,18.80
2022-09-25T12:50:32.565Z,18.70
2022-09-25T12:53:05.551Z,18.70
2022-09-25T12:55:45.082Z,18.80
2022-09-25T12:58:41.912Z,19.00
2022-09-25T13:01:46.387Z,19.30
2022-09-25T13:04:47.408Z,19.50
2022-09-25T13:07:27.237Z,19.40
2022-09-25T13:09:54.055Z,19.50
2022-09-25T13:12:37.468Z,19.50
2022-09-25T13:15:19.702Z,19.40
2022-09-25T13:17:46.430Z,19.30
2022-09-25T13:20:28.510Z,19.20
2022-09-25T13:23:03.854Z,19.00
2022-09-25T13:25:41.444Z,18.80
2022-09-25T13:28:14.618Z,18.70
2022-09-25T13:30:57.713Z,18.50
2022-09-25T13:33:25.400Z,18.40
2022-09-25T13:36:07.174Z,18.40
2022-09-25T13:38:58.716Z,18.50
2022-09-25T13:41:26.286Z,18.50
2022-09-25T13:44:31.236Z,18.60
2022-09-25T13:47:27.160Z,18.60
2022-09-25T13:50:11.983Z,18.80
2022-09-25T13:52:38.555Z,18.90
2022-09-25T13:55:21.250Z,18.90
2022-09-25T13:57:59.969Z,18.90
2022-09-25T14:00:39.109Z,18.90
2022-09-25T14:03:05.784Z,19.00
2022-09-25T14:05:37.026Z,19.00
2022-09-25T14:08:08.206Z,19.00
2022-09-25T14:10:35.808Z,19.00
2022-09-25T14:13:06.900Z,19.00
2022-09-25T14:15:38.969Z,18.90
2022-09-25T14:18:17.481Z,18.90
2022-09-25T14:20:47.338Z,18.90
2022-09-25T14:23:24.788Z,18.90
2022-09-25T14:25:58.460Z,18.90
2022-09-25T14:28:28.002Z,18.90
2022-09-25T14:31:21.271Z,18.90
2022-09-25T14:34:12.971Z,18.90
2022-09-25T14:37:05.111Z,19.00
2022-09-25T14:39:37.721Z,18.90
2022-09-25T14:42:19.693Z,18.90
2022-09-25T14:45:23.621Z,19.00
2022-09-25T14:47:55.553Z,19.00
2022-09-25T14:50:26.899Z,18.90
2022-09-25T14:52:58.016Z,18.80
2022-09-25T14:55:28.669Z,18.80
2022-09-25T14:57:57.951Z,18.80
2022-09-25T15:00:24.810Z,18.70
2022-09-25T15:02:55.068Z,18.60
2022-09-25T15:05:21.835Z,18.60
2022-09-25T15:07:48.464Z,18.60
2022-09-25T15:10:30.687Z,18.70
2022-09-25T15:13:19.821Z,18.70
2022-09-25T15:16:12.755Z,18.60
2022-09-25T15:18:42.114Z,18.50
2022-09-25T15:21:14.166Z,18.30
2022-09-25T15:23:43.958Z,18.00
2022-09-25T15:26:16.339Z,18.00
2022-09-25T15:28:43.161Z,17.90
2022-09-25T15:31:10.349Z,17.90
2022-09-25T15:33:39.077Z,17.80
2022-09-25T15:36:22.549Z,17.60
2022-09-25T15:39:00.767Z,17.50
2022-09-25T15:41:29.184Z,17.40
2022-09-25T15:44:17.861Z,17.20
2022-09-25T15:46:49.020Z,17.10
2022-09-25T15:49:25.812Z,17.10
2022-09-25T15:52:00.843Z,17.00
2022-09-25T15:54:44.374Z,16.90
2022-09-25T15:57:15.202Z,16.90
2022-09-25T16:00:07.949Z,16.80
2022-09-25T16:02:56.614Z,16.80
2022-09-25T16:05:33.117Z,16.80
2022-09-25T16:08:27.639Z,16.60
2022-09-25T16:11:26.935Z,16.70
2022-09-25T16:14:16.461Z,16.60
2022-09-25T16:16:49.726Z,16.50
2022-09-25T16:19:25.242Z,16.40
2022-09-25T16:21:52.632Z,16.30
2022-09-25T16:24:22.579Z,16.40
2022-09-25T16:27:01.901Z,16.30
2022-09-25T16:29:31.251Z,16.30
2022-09-25T16:32:10.876Z,16.30
2022-09-25T16:34:40.454Z,16.20
2022-09-25T16:37:19.066Z,16.20
2022-09-25T16:39:45.903Z,16.10
2022-09-25T16:42:26.781Z,16.10
2022-09-25T16:45:04.042Z,16.00
2022-09-25T16:47:30.884Z,15.80
2022-09-25T16:49:57.724Z,15.80
2022-09-25T16:52:26.902Z,15.80
2022-09-25T16:54:56.721Z,15.70
2022-09-25T16:57:25.509Z,15.70
2022-09-25T16:59:52.530Z,15.70
2022-09-25T17:02:41.298Z,15.60
2022-09-25T17:05:23.138Z,15.60
2022-09-25T17:07:52.548Z,15.50
2022-09-25T17:10:25.296Z,15.40
2022-09-25T17:12:54.249Z,15.40
2022-09-25T17:15:24.906Z,15.40
2022-09-25T17:17:54.286Z,15.30
2022-09-25T17:20:23.144Z,15.30
2022-09-25T17:22:51.841Z,15.30
2022-09-25T17:25:40.638Z,15.30
2022-09-25T17:28:09.361Z,15.20
2022-09-25T17:30:36.623Z,15.10
2022-09-25T17:33:06.514Z,15.00
2022-09-25T17:35:58.887Z,15.00
2022-09-25T17:38:27.096Z,15.00
2022-09-25T17:40:56.675Z,15.00
2022-09-25T17:43:24.566Z,14.90
2022-09-25T17:45:56.513Z,14.90
2022-09-25T17:48:27.228Z,14.90
2022-09-25T17:51:10.601Z,14.80
2022-09-25T17:53:37.303Z,14.80
2022-09-25T17:56:04.186Z,14.70
2022-09-25T17:58:31.975Z,14.70
2022-09-25T18:01:01.254Z,14.70
2022-09-25T18:03:30.431Z,14.60
2022-09-25T18:05:57.667Z,14.60
2022-09-25T18:08:24.558Z,14.60
2022-09-25T18:10:58.500Z,14.60
2022-09-25T18:13:25.294Z,14.60
2022-09-25T18:15:57.760Z,14.50
2022-09-25T18:18:25.027Z,14.50
2022-09-25T18:21:10.346Z,14.50
2022-09-25T18:23:38.481Z,14.40
2022-09-25T18:26:08.140Z,14.30
2022-09-25T18:28:34.787Z,14.30
2022-09-25T18:31:01.932Z,14.20
2022-09-25T18:33:28.657Z,14.10
2022-09-25T18:35:55.336Z,14.00
2022-09-25T18:38:21.954Z,13.90
2022-09-25T18:40:48.596Z,13.80
2022-09-25T18:43:17.645Z,13.70
2022-09-25T18:45:53.120Z,13.60
2022-09-25T18:48:20.773Z,13.50
2022-09-25T18:50:49.046Z,13.40
2022-09-25T18:53:16.795Z,13.30
2022-09-25T18:55:43.702Z,13.10
2022-09-25T18:58:11.261Z,13.10
2022-09-25T19:00:38.613Z,13.00
2022-09-25T19:03:06.130Z,12.90
2022-09-25T19:05:33.465Z,12.80
2022-09-25T19:08:00.107Z,12.70
2022-09-25T19:10:26.778Z,12.60
2022-09-25T19:12:53.366Z,12.50
2022-09-25T19:15:20.438Z,12.50
2022-09-25T19:17:48.310Z,12.40
2022-09-25T19:20:15.346Z,12.30
2022-09-25T19:22:41.972Z,12.30
2022-09-25T19:25:10.574Z,12.20
2022-09-25T19:27:37.387Z,12.10
2022-09-25T19:30:04.267Z,12.00
2022-09-25T19:32:30.935Z,12.00
2022-09-25T19:34:57.557Z,12.00
2022-09-25T19:37:27.742Z,11.90
2022-09-25T19:40:12.935Z,11.90
2022-09-25T19:42:39.898Z,11.80
2022-09-25T19:45:07.102Z,11.70
2022-09-25T19:47:33.782Z,11.70
2022-09-25T19:50:00.639Z,11.60
2022-09-25T19:52:27.273Z,11.60
2022-09-25T19:54:53.892Z,11.50
2022-09-25T19:57:20.494Z,11.50
2022-09-25T19:59:49.231Z,11.40
2022-09-25T20:02:16.072Z,11.40
2022-09-25T20:04:43.921Z,11.40
2022-09-25T20:07:17.286Z,11.30
2022-09-25T20:09:44.572Z,11.30
2022-09-25T20:12:11.833Z,11.20
2022-09-25T20:14:38.651Z,11.20
2022-09-25T20:17:10.178Z,11.20
2022-09-25T20:19:37.843Z,11.20
2022-09-25T20:22:04.422Z,11.10
2022-09-25T20:24:31.111Z,11.10
2022-09-25T20:26:57.740Z,11.00
2022-09-25T20:29:24.501Z,10.90
2022-09-25T20:31:51.136Z,10.90
2022-09-25T20:34:21.876Z,10.90
2022-09-25T20:36:48.675Z,10.80
2022-09-25T20:39:20.832Z,10.70
2022-09-25T20:41:49.136Z,10.70
2022-09-25T20:44:15.909Z,10.70
2022-09-25T20:46:42.599Z,10.70
2022-09-25T20:49:10.717Z,10.60
2022-09-25T20:51:37.736Z,10.50
2022-09-25T20:54:09.480Z,10.50
2022-09-25T20:56:38.342Z,10.40
2022-09-25T20:59:05.531Z,10.40
2022-09-25T21:01:36.635Z,10.40
2022-09-25T21:04:07.683Z,10.30
2022-09-25T21:06:37.788Z,10.30
2022-09-25T21:09:07.840Z,10.30
2022-09-25T21:11:34.952Z,10.20
2022-09-25T21:14:02.627Z,10.20
2022-09-25T21:16:31.044Z,10.20
2022-09-25T21:19:04.047Z,10.10
2022-09-25T21:21:31.867Z,10.10
2022-09-25T21:23:58.946Z,10.10
2022-09-25T21:26:27.821Z,10.00
2022-09-25T21:28:58.172Z,10.00
2022-09-25T21:31:28.965Z,10.00
2022-09-25T21:33:57.124Z,10.00
2022-09-25T21:36:25.325Z,9.90
2022-09-25T21:38:52.191Z,9.90
2022-09-25T21:41:21.607Z,9.90
2022-09-25T21:43:52.211Z,9.90
2022-09-25T21:46:19.596Z,9.90
2022-09-25T21:48:52.627Z,9.80
2022-09-25T21:51:21.254Z,9.80
2022-09-25T21:53:48.762Z,9.80
2022-09-25T21:56:22.551Z,9.80
2022-09-25T21:58:51.474Z,9.70
2022-09-25T22:01:29.252Z,9.70
2022-09-25T22:03:57.936Z,9.70
2022-09-25T22:06:34.653Z,9.70
2022-09-25T22:09:10.747Z,9.70
2022-09-25T22:11:38.788Z,9.70
2022-09-25T22:14:06.558Z,9.70
2022-09-25T22:16:37.400Z,9.70
2022-09-25T22:19:11.589Z,9.60
2022-09-25T22:21:39.456Z,9.70
2022-09-25T22:24:06.722Z,9.60
2022-09-25T22:26:38.305Z,9.60
2022-09-25T22:29:06.960Z,9.60
2022-09-25T22:31:35.401Z,9.60
2022-09-25T22:34:05.207Z,9.50
2022-09-25T22:36:32.045Z,9.50
2022-09-25T22:38:58.667Z,9.50
2022-09-25T22:41:25.562Z,9.50
2022-09-25T22:43:54.130Z,9.50
2022-09-25T22:46:23.235Z,9.50
2022-09-25T22:48:50.798Z,9.40
2022-09-25T22:51:20.045Z,9.50
2022-09-25T22:53:48.023Z,9.50
2022-09-25T22:56:26.095Z,9.60
2022-09-25T22:58:58.585Z,9.70
2022-09-25T23:01:47.845Z,9.70
2022-09-25T23:04:18.323Z,9.70
2022-09-25T23:06:45.554Z,9.70
2022-09-25T23:09:22.272Z,9.80
2022-09-25T23:11:49.418Z,9.80
2022-09-25T23:14:22.278Z,9.90
2022-09-25T23:16:51.792Z,9.90
2022-09-25T23:19:19.113Z,10.00
2022-09-25T23:21:46.148Z,9.90
2022-09-25T23:24:15.988Z,10.00
2022-09-25T23:26:43.507Z,10.00
2022-09-25T23:29:12.991Z,10.00
2022-09-25T23:31:40.108Z,10.00
2022-09-25T23:34:06.771Z,10.00
2022-09-25T23:36:33.459Z,10.00
2022-09-25T23:39:01.034Z,10.00
2022-09-25T23:41:36.045Z,10.10
2022-09-25T23:44:04.917Z,10.00
2022-09-25T23:46:34.194Z,10.00
2022-09-25T23:49:01.910Z,10.00
2022-09-25T23:51:29.064Z,10.00
2022-09-25T23:53:57.945Z,10.10
2022-09-25T23:56:26.989Z,10.10
2022-09-25T23:58:56.229Z,10.10
